• Join FlightAware (Why Join?)
  • Login
  • US Flag 
02:30AM EDT


 

Airport Tracker/Info


-or-


 

Live Flight TrackerFlight Track Log ✈ SIL4078 ✈ 11-May-2013 ✈ KJHW - KCLE

Flight Track Log - Related Links

Times and Time Zones

All times are in EDT time to prevent confusion due to time zone crossing. See the SIL4078 flight status page for this flight to view local times or setup timezone preferences in your user account.

Time Position Orientation Groundspeed Altitude Reporting Facility
EDT Latitude Longitude Course Direction KTS MPH feet Rate Location/Type
05:17PM 42.1161 -79.3739 246° West 105 121 8,100  Level Cleveland Center
05:18PM 42.1064 -79.4244 255° West 120 138 10,300 2,340 Climbing Cleveland Center
05:19PM 42.0942 -79.4722 251° West 127 146 12,800 2,220 Climbing Cleveland Center
05:20PM 42.0758 -79.5175 241° Southwest 135 155 14,800 1,560 Climbing Cleveland Center
05:21PM 42.0597 -79.5708 248° West 141 162 16,000 600 Climbing Cleveland Center
05:22PM 42.0074 -79.6778 246° West  Level FlightAware Approximate
05:22PM 42.0353 -79.6356 243° Southwest 168 193 16,100  Level Cleveland Center
05:23PM 42.0047 -79.7114 242° Southwest 207 238 15,900 -120 Descending Cleveland Center
05:24PM 41.9761 -79.7900 244° Southwest 226 260 15,900  Level Cleveland Center
05:25PM 41.9558 -79.8711 251° West 236 272 15,900  Level Cleveland Center
05:26PM 41.9311 -79.9525 248° West 236 272 15,900  Level Cleveland Center
05:27PM 41.9064 -80.0253 245° Southwest 236 272 15,900  Level Cleveland Center
05:28PM 41.8778 -80.1036 244° Southwest 236 272 15,900  Level Cleveland Center
05:29PM 41.8531 -80.1900 249° West 236 272 16,000  Climbing Cleveland Center
05:30PM 41.8325 -80.2711 251° West 236 272 16,000  Level Cleveland Center
05:31PM 41.8033 -80.3492 243° Southwest 236 272 16,000  Level Cleveland Center
05:32PM 41.7806 -80.4300 249° West 236 272 16,000  Level Cleveland Center
05:33PM 41.7597 -80.5108 251° West 231 266 16,000  Level Cleveland Center
05:34PM 41.7306 -80.5886 243° Southwest 236 272 16,000 -60 Level Cleveland Center
05:35PM 41.7056 -80.6694 248° West 236 272 15,900 -300 Descending Cleveland Center
05:36PM 41.6783 -80.7556 247° West 241 277 15,500 -600 Descending Cleveland Center
05:37PM 41.6511 -80.8472 248° West 233 268 14,700 -1,860 Descending Cleveland Center
05:38PM 41.6303 -80.9053 244° Southwest 220 253 12,000 -1,800 Descending Cleveland Center
05:39PM 41.6050 -80.9775 245° Southwest 220 253 11,500 -960 Descending Cleveland Center
05:40PM 41.5900 -81.0578 256° West 226 260 10,100 -1,320 Descending Cleveland Center
05:40PM 41.5900 -81.0578 256° West 228 262 10,100 -1,020 Level Cleveland Center
05:41PM 41.5856 -81.1272 265° West 209 241 9,000 -840 Descending Cleveland Center
05:42PM 41.5769 -81.2022 261° West 204 235 8,500 -900 Descending Cleveland Center
05:43PM 41.5658 -81.2769 259° West 204 235 7,200 -1,380 Descending Cleveland Center
05:44PM 41.5592 -81.3492 263° West 198 228 5,800 -960 Descending Cleveland Center
05:45PM 41.5544 -81.4267 265° West 198 228 5,300 -420 Descending Cleveland Center
05:46PM 41.5456 -81.5097 262° West 205 236 5,000 -660 Descending Cleveland Center
05:47PM 41.5344 -81.5817 258° West 205 236 4,000 -480 Descending Cleveland Center
05:48PM 41.5253 -81.6703 262° West 225 259 4,000 -600 Level Cleveland Center
05:49PM 41.4850 -81.7361 231° Southwest 232 267 2,800 -1,140 Descending Cleveland Center
05:50PM 41.4492 -81.7964 232° Southwest 185 213 1,800 -900 Descending Cleveland Center
05:51PM 41.4217 -81.8292 222° Southwest 117 135 1,000 -840 Descending Cleveland Center
05:53PM 41.4000 -81.8500 246° West  Level FlightAware Approximate
06:00PM 41.4094 -81.8547 246° West  Level Estimated